DCCHB EDFE-EDAZ
Flight info
| Callsign | DCCHB |
|---|---|
| Flight time | 0h 42m |
| Altitude | 45000 |
| Route | DCT BAMTO/N0428F450 IFR L984 SULUS/N0438F310 Z12 KODUK/N0433F250 Z12 LASGA T202 MILGU DCT MOSEX VFR DCT |
| Aircraft | LJ35/M-SGHRWXY/SB1 |
Departure
| Time | 2026-05-05 17:24 |
|---|---|
| Airport | Frankfurt-Egelsbach Airport (EDFE) |
Arrival
| Time | 2026-05-05 18:07 |
|---|---|
| Airport | Schönhagen Airfield (EDAZ) |
| Time | Latitude | Longitude | Altitude | Speed | Heading |
|---|---|---|---|---|---|
| 2026-05-05 17:16 | 49.96245 | 8.64294 | 387 ft | 0 kts | 265° |
| 2026-05-05 17:20 | 49.96245 | 8.64291 | 387 ft | 1 kts | 264° |
| 2026-05-05 17:21 | 49.96231 | 8.64265 | 387 ft | 6 kts | 208° |
| 2026-05-05 17:21 | 49.96186 | 8.64255 | 387 ft | 7 kts | 199° |
| 2026-05-05 17:21 | 49.96167 | 8.64196 | 387 ft | 7 kts | 266° |
| 2026-05-05 17:22 | 49.96158 | 8.63997 | 387 ft | 12 kts | 266° |
| 2026-05-05 17:22 | 49.96152 | 8.63856 | 387 ft | 14 kts | 265° |
| 2026-05-05 17:22 | 49.96145 | 8.63704 | 387 ft | 14 kts | 266° |
| 2026-05-05 17:22 | 49.96137 | 8.63554 | 387 ft | 14 kts | 266° |
| 2026-05-05 17:23 | 49.96130 | 8.63406 | 387 ft | 14 kts | 264° |
| 2026-05-05 17:23 | 49.96123 | 8.63276 | 387 ft | 9 kts | 257° |
| 2026-05-05 17:23 | 49.96083 | 8.63204 | 387 ft | 9 kts | 220° |
| 2026-05-05 17:23 | 49.96041 | 8.63271 | 385 ft | 29 kts | 86° |
| 2026-05-05 17:24 | 49.96082 | 8.64158 | 390 ft | 135 kts | 85° |
| 2026-05-05 17:24 | 49.96173 | 8.65824 | 887 ft | 151 kts | 85° |
| 2026-05-05 17:24 | 49.96271 | 8.67535 | 1036 ft | 166 kts | 86° |
| 2026-05-05 17:24 | 49.96367 | 8.69393 | 1058 ft | 178 kts | 85° |
| 2026-05-05 17:25 | 49.96471 | 8.71318 | 1136 ft | 183 kts | 85° |
| 2026-05-05 17:25 | 49.96538 | 8.72674 | 1134 ft | 190 kts | 86° |
| 2026-05-05 17:25 | 49.96671 | 8.75451 | 1138 ft | 197 kts | 85° |
| 2026-05-05 17:25 | 49.96774 | 8.77561 | 1144 ft | 194 kts | 86° |
| 2026-05-05 17:26 | 49.96916 | 8.79618 | 1125 ft | 190 kts | 77° |
| 2026-05-05 17:26 | 49.97211 | 8.81594 | 1133 ft | 185 kts | 78° |
| 2026-05-05 17:26 | 49.97519 | 8.83491 | 1110 ft | 182 kts | 66° |
| 2026-05-05 17:26 | 49.98149 | 8.85242 | 1163 ft | 187 kts | 57° |
| 2026-05-05 17:27 | 49.98834 | 8.86956 | 1277 ft | 187 kts | 56° |
| 2026-05-05 17:27 | 49.99611 | 8.88580 | 1389 ft | 187 kts | 51° |
| 2026-05-05 17:27 | 50.00391 | 8.90166 | 1489 ft | 183 kts | 52° |
| 2026-05-05 17:27 | 50.01144 | 8.91764 | 1608 ft | 183 kts | 53° |
| 2026-05-05 17:28 | 50.01886 | 8.93361 | 1732 ft | 181 kts | 53° |
| 2026-05-05 17:28 | 50.02630 | 8.94957 | 1853 ft | 186 kts | 52° |
| 2026-05-05 17:28 | 50.03408 | 8.96617 | 2020 ft | 192 kts | 52° |
| 2026-05-05 17:28 | 50.04186 | 8.98288 | 2202 ft | 189 kts | 52° |
| 2026-05-05 17:29 | 50.04991 | 9.00015 | 2573 ft | 211 kts | 53° |
| 2026-05-05 17:29 | 50.05809 | 9.02057 | 3254 ft | 238 kts | 69° |
| 2026-05-05 17:29 | 50.06115 | 9.04718 | 4210 ft | 262 kts | 89° |
| 2026-05-05 17:29 | 50.06146 | 9.07621 | 5380 ft | 273 kts | 91° |
| 2026-05-05 17:30 | 50.06179 | 9.10621 | 6595 ft | 282 kts | 91° |
| 2026-05-05 17:30 | 50.06227 | 9.13728 | 7696 ft | 292 kts | 90° |
| 2026-05-05 17:30 | 50.06275 | 9.16932 | 8798 ft | 303 kts | 90° |
| 2026-05-05 17:30 | 50.06326 | 9.20317 | 9947 ft | 313 kts | 91° |
| 2026-05-05 17:31 | 50.06378 | 9.23650 | 10726 ft | 314 kts | 91° |
| 2026-05-05 17:31 | 50.06421 | 9.27177 | 11590 ft | 332 kts | 91° |
| 2026-05-05 17:31 | 50.06465 | 9.30779 | 13142 ft | 338 kts | 91° |
| 2026-05-05 17:31 | 50.06518 | 9.34478 | 14384 ft | 345 kts | 91° |
| 2026-05-05 17:32 | 50.06571 | 9.38249 | 15629 ft | 351 kts | 91° |
| 2026-05-05 17:32 | 50.06617 | 9.42093 | 16905 ft | 358 kts | 91° |
| 2026-05-05 17:32 | 50.06659 | 9.45999 | 18089 ft | 367 kts | 91° |
| 2026-05-05 17:32 | 50.06708 | 9.49990 | 19181 ft | 371 kts | 91° |
| 2026-05-05 17:33 | 50.06762 | 9.54103 | 19876 ft | 389 kts | 91° |
| 2026-05-05 17:33 | 50.06807 | 9.58401 | 20475 ft | 404 kts | 91° |
| 2026-05-05 17:33 | 50.06846 | 9.62836 | 21188 ft | 412 kts | 91° |
| 2026-05-05 17:33 | 50.06895 | 9.67321 | 22093 ft | 417 kts | 91° |
| 2026-05-05 17:34 | 50.06946 | 9.71865 | 22864 ft | 423 kts | 91° |
| 2026-05-05 17:34 | 50.06982 | 9.76470 | 23603 ft | 428 kts | 91° |
| 2026-05-05 17:34 | 50.07022 | 9.81126 | 24258 ft | 432 kts | 91° |
| 2026-05-05 17:34 | 50.07079 | 9.85806 | 24924 ft | 435 kts | 91° |
| 2026-05-05 17:35 | 50.07123 | 9.90535 | 25551 ft | 438 kts | 92° |
| 2026-05-05 17:35 | 50.07158 | 9.95270 | 26343 ft | 436 kts | 92° |
| 2026-05-05 17:35 | 50.07199 | 9.99985 | 27197 ft | 433 kts | 92° |
| 2026-05-05 17:35 | 50.07239 | 10.04662 | 28007 ft | 431 kts | 92° |
| 2026-05-05 17:36 | 50.07276 | 10.09311 | 28796 ft | 429 kts | 92° |
| 2026-05-05 17:36 | 50.07303 | 10.13948 | 29579 ft | 427 kts | 93° |
| 2026-05-05 17:36 | 50.07317 | 10.18551 | 30270 ft | 425 kts | 93° |
| 2026-05-05 17:36 | 50.07331 | 10.23162 | 30891 ft | 424 kts | 93° |
| 2026-05-05 17:37 | 50.07350 | 10.27744 | 31472 ft | 423 kts | 93° |
| 2026-05-05 17:37 | 50.07369 | 10.30779 | 31856 ft | 423 kts | 93° |
| 2026-05-05 17:37 | 50.07408 | 10.36895 | 32621 ft | 422 kts | 94° |
| 2026-05-05 17:37 | 50.07427 | 10.41447 | 33170 ft | 421 kts | 94° |
| 2026-05-05 17:38 | 50.07444 | 10.46007 | 33709 ft | 420 kts | 94° |
| 2026-05-05 17:38 | 50.07461 | 10.50553 | 34153 ft | 421 kts | 94° |
| 2026-05-05 17:38 | 50.07475 | 10.55117 | 34533 ft | 422 kts | 94° |
| 2026-05-05 17:38 | 50.07489 | 10.59698 | 34909 ft | 424 kts | 94° |
| 2026-05-05 17:39 | 50.07515 | 10.64282 | 35277 ft | 426 kts | 91° |
| 2026-05-05 17:39 | 50.07917 | 10.68831 | 35622 ft | 433 kts | 80° |
| 2026-05-05 17:39 | 50.08870 | 10.73306 | 35975 ft | 439 kts | 69° |
| 2026-05-05 17:39 | 50.10355 | 10.77477 | 36346 ft | 443 kts | 58° |
| 2026-05-05 17:40 | 50.12305 | 10.81210 | 36721 ft | 446 kts | 50° |
| 2026-05-05 17:40 | 50.14381 | 10.84802 | 37083 ft | 447 kts | 50° |
| 2026-05-05 17:40 | 50.16462 | 10.88421 | 37458 ft | 447 kts | 50° |
| 2026-05-05 17:40 | 50.18531 | 10.92039 | 37815 ft | 448 kts | 50° |
| 2026-05-05 17:41 | 50.20608 | 10.95673 | 38252 ft | 447 kts | 50° |
| 2026-05-05 17:41 | 50.22665 | 10.99266 | 38800 ft | 441 kts | 49° |
| 2026-05-05 17:41 | 50.24691 | 11.02806 | 39355 ft | 433 kts | 49° |
| 2026-05-05 17:41 | 50.26702 | 11.06334 | 39607 ft | 435 kts | 49° |
| 2026-05-05 17:42 | 50.28708 | 11.09861 | 39925 ft | 435 kts | 49° |
| 2026-05-05 17:42 | 50.30720 | 11.13397 | 40225 ft | 435 kts | 49° |
| 2026-05-05 17:42 | 50.32730 | 11.16931 | 40521 ft | 434 kts | 49° |
| 2026-05-05 17:42 | 50.34737 | 11.20466 | 40798 ft | 434 kts | 49° |
| 2026-05-05 17:43 | 50.36787 | 11.23944 | 41076 ft | 434 kts | 44° |
| 2026-05-05 17:43 | 50.38955 | 11.27233 | 41367 ft | 434 kts | 44° |
| 2026-05-05 17:43 | 50.41127 | 11.30517 | 41647 ft | 434 kts | 44° |
| 2026-05-05 17:43 | 50.43288 | 11.33826 | 41930 ft | 434 kts | 44° |
| 2026-05-05 17:44 | 50.45439 | 11.37136 | 42200 ft | 434 kts | 44° |
| 2026-05-05 17:44 | 50.47599 | 11.40445 | 42511 ft | 433 kts | 44° |
| 2026-05-05 17:44 | 50.49757 | 11.43749 | 42786 ft | 433 kts | 44° |
| 2026-05-05 17:44 | 50.51908 | 11.47052 | 43072 ft | 433 kts | 44° |
| 2026-05-05 17:45 | 50.54055 | 11.50360 | 43337 ft | 432 kts | 44° |
| 2026-05-05 17:45 | 50.56255 | 11.53575 | 43588 ft | 431 kts | 36° |
| 2026-05-05 17:45 | 50.58678 | 11.56335 | 43839 ft | 429 kts | 34° |
| 2026-05-05 17:45 | 50.61100 | 11.59089 | 44086 ft | 429 kts | 34° |
| 2026-05-05 17:46 | 50.63502 | 11.61865 | 44335 ft | 428 kts | 34° |
| 2026-05-05 17:46 | 50.65880 | 11.64595 | 44554 ft | 428 kts | 34° |
| 2026-05-05 17:46 | 50.68320 | 11.67374 | 44742 ft | 428 kts | 34° |
| 2026-05-05 17:47 | 50.73187 | 11.72961 | 44758 ft | 437 kts | 34° |
| 2026-05-05 17:47 | 50.75632 | 11.75781 | 44251 ft | 445 kts | 34° |
| 2026-05-05 17:47 | 50.78173 | 11.78703 | 43106 ft | 461 kts | 34° |
| 2026-05-05 17:47 | 50.80810 | 11.81741 | 42001 ft | 477 kts | 35° |
| 2026-05-05 17:48 | 50.83520 | 11.84875 | 40953 ft | 487 kts | 35° |
| 2026-05-05 17:48 | 50.86257 | 11.88048 | 39958 ft | 489 kts | 36° |
| 2026-05-05 17:48 | 50.89008 | 11.91235 | 38994 ft | 490 kts | 36° |
| 2026-05-05 17:48 | 50.91763 | 11.94431 | 37963 ft | 491 kts | 36° |
| 2026-05-05 17:49 | 50.94516 | 11.97631 | 36810 ft | 491 kts | 36° |
| 2026-05-05 17:49 | 50.97255 | 12.00821 | 35718 ft | 492 kts | 36° |
| 2026-05-05 17:49 | 50.99925 | 12.03933 | 34707 ft | 492 kts | 36° |
| 2026-05-05 17:49 | 51.02688 | 12.07158 | 33674 ft | 492 kts | 37° |
| 2026-05-05 17:50 | 51.05445 | 12.10382 | 32535 ft | 492 kts | 37° |
| 2026-05-05 17:50 | 51.08192 | 12.13606 | 31438 ft | 491 kts | 37° |
| 2026-05-05 17:50 | 51.10945 | 12.16835 | 30386 ft | 490 kts | 36° |
| 2026-05-05 17:50 | 51.13686 | 12.20052 | 29274 ft | 489 kts | 36° |
| 2026-05-05 17:51 | 51.16418 | 12.23266 | 28109 ft | 488 kts | 37° |
| 2026-05-05 17:51 | 51.19143 | 12.26489 | 26995 ft | 488 kts | 37° |
| 2026-05-05 17:51 | 51.21875 | 12.29701 | 25921 ft | 487 kts | 36° |
| 2026-05-05 17:51 | 51.24593 | 12.32908 | 24892 ft | 486 kts | 37° |
| 2026-05-05 17:52 | 51.27296 | 12.36136 | 23890 ft | 483 kts | 37° |
| 2026-05-05 17:52 | 51.30047 | 12.39191 | 22830 ft | 480 kts | 32° |
| 2026-05-05 17:52 | 51.32900 | 12.41898 | 21702 ft | 473 kts | 30° |
| 2026-05-05 17:52 | 51.35726 | 12.44516 | 20610 ft | 466 kts | 30° |
| 2026-05-05 17:53 | 51.38504 | 12.47066 | 19555 ft | 453 kts | 30° |
| 2026-05-05 17:53 | 51.41189 | 12.49538 | 18405 ft | 438 kts | 30° |
| 2026-05-05 17:53 | 51.43789 | 12.51949 | 17101 ft | 424 kts | 30° |
| 2026-05-05 17:53 | 51.46306 | 12.54284 | 15837 ft | 412 kts | 30° |
| 2026-05-05 17:54 | 51.48725 | 12.56528 | 14724 ft | 400 kts | 30° |
| 2026-05-05 17:54 | 51.51086 | 12.58718 | 13839 ft | 384 kts | 30° |
| 2026-05-05 17:54 | 51.53357 | 12.60829 | 12909 ft | 370 kts | 30° |
| 2026-05-05 17:54 | 51.55546 | 12.62871 | 12004 ft | 358 kts | 30° |
| 2026-05-05 17:55 | 51.57665 | 12.64847 | 11200 ft | 346 kts | 30° |
| 2026-05-05 17:55 | 51.59712 | 12.66756 | 10432 ft | 335 kts | 30° |
| 2026-05-05 17:55 | 51.61697 | 12.68608 | 9685 ft | 326 kts | 30° |
| 2026-05-05 17:55 | 51.63633 | 12.70420 | 8918 ft | 317 kts | 30° |
| 2026-05-05 17:56 | 51.65508 | 12.72175 | 8286 ft | 307 kts | 30° |
| 2026-05-05 17:56 | 51.67326 | 12.73877 | 7673 ft | 298 kts | 30° |
| 2026-05-05 17:56 | 51.69101 | 12.75505 | 7085 ft | 290 kts | 26° |
| 2026-05-05 17:56 | 51.70990 | 12.76661 | 6698 ft | 290 kts | 18° |
| 2026-05-05 17:57 | 51.72923 | 12.77586 | 6366 ft | 289 kts | 16° |
| 2026-05-05 17:57 | 51.74862 | 12.78459 | 6092 ft | 289 kts | 15° |
| 2026-05-05 17:57 | 51.76797 | 12.79302 | 5810 ft | 287 kts | 14° |
| 2026-05-05 17:57 | 51.78743 | 12.79963 | 5536 ft | 285 kts | 11° |
| 2026-05-05 17:58 | 51.80689 | 12.80542 | 5266 ft | 282 kts | 11° |
| 2026-05-05 17:58 | 51.82569 | 12.81385 | 4991 ft | 280 kts | 20° |
| 2026-05-05 17:58 | 51.83754 | 12.82116 | 4819 ft | 278 kts | 24° |
| 2026-05-05 17:58 | 51.85356 | 12.83281 | 4584 ft | 276 kts | 26° |
| 2026-05-05 17:59 | 51.87089 | 12.84606 | 4310 ft | 274 kts | 26° |
| 2026-05-05 17:59 | 51.89342 | 12.86342 | 4058 ft | 261 kts | 26° |
| 2026-05-05 17:59 | 51.90923 | 12.87562 | 3876 ft | 242 kts | 27° |
| 2026-05-05 17:59 | 51.91934 | 12.88320 | 3761 ft | 232 kts | 25° |
| 2026-05-05 18:00 | 51.93377 | 12.89306 | 3583 ft | 219 kts | 24° |
| 2026-05-05 18:00 | 51.94754 | 12.90221 | 3386 ft | 210 kts | 24° |
| 2026-05-05 18:00 | 51.96087 | 12.91097 | 3153 ft | 203 kts | 24° |
| 2026-05-05 18:00 | 51.97367 | 12.92017 | 2928 ft | 202 kts | 27° |
| 2026-05-05 18:01 | 51.98626 | 12.93012 | 2749 ft | 205 kts | 27° |
| 2026-05-05 18:01 | 51.99907 | 12.94035 | 2559 ft | 206 kts | 27° |
| 2026-05-05 18:01 | 52.01161 | 12.95146 | 2411 ft | 205 kts | 32° |
| 2026-05-05 18:01 | 52.02378 | 12.96350 | 2266 ft | 205 kts | 33° |
| 2026-05-05 18:02 | 52.03584 | 12.97583 | 2125 ft | 204 kts | 35° |
| 2026-05-05 18:02 | 52.04734 | 12.98905 | 2027 ft | 202 kts | 38° |
| 2026-05-05 18:02 | 52.05847 | 13.00242 | 1963 ft | 198 kts | 37° |
| 2026-05-05 18:02 | 52.06939 | 13.01568 | 1902 ft | 191 kts | 38° |
| 2026-05-05 18:03 | 52.07937 | 13.02782 | 1798 ft | 171 kts | 38° |
| 2026-05-05 18:03 | 52.08862 | 13.03907 | 1634 ft | 162 kts | 38° |
| 2026-05-05 18:03 | 52.09743 | 13.04977 | 1414 ft | 155 kts | 37° |
| 2026-05-05 18:03 | 52.10689 | 13.05789 | 1191 ft | 152 kts | 23° |
| 2026-05-05 18:04 | 52.11632 | 13.06417 | 1177 ft | 137 kts | 24° |
| 2026-05-05 18:04 | 52.12494 | 13.06951 | 1181 ft | 131 kts | 20° |
| 2026-05-05 18:04 | 52.13357 | 13.07356 | 1181 ft | 131 kts | 17° |
| 2026-05-05 18:04 | 52.14246 | 13.07730 | 1186 ft | 131 kts | 17° |
| 2026-05-05 18:05 | 52.15108 | 13.08110 | 1187 ft | 126 kts | 17° |
| 2026-05-05 18:05 | 52.15984 | 13.08441 | 986 ft | 133 kts | 14° |
| 2026-05-05 18:05 | 52.16891 | 13.08795 | 888 ft | 135 kts | 19° |
| 2026-05-05 18:05 | 52.17766 | 13.09385 | 726 ft | 138 kts | 26° |
| 2026-05-05 18:06 | 52.18584 | 13.10179 | 671 ft | 138 kts | 37° |
| 2026-05-05 18:06 | 52.19068 | 13.10853 | 616 ft | 139 kts | 44° |
| 2026-05-05 18:06 | 52.19795 | 13.12607 | 453 ft | 142 kts | 65° |
| 2026-05-05 18:06 | 52.20092 | 13.14091 | 309 ft | 135 kts | 75° |
| 2026-05-05 18:07 | 52.20322 | 13.15561 | 136 ft | 126 kts | 76° |
| 2026-05-05 18:07 | 52.20461 | 13.16464 | 140 ft | 29 kts | 74° |
| 2026-05-05 18:07 | 52.20513 | 13.16623 | 142 ft | 12 kts | 335° |
| 2026-05-05 18:07 | 52.20545 | 13.16488 | 140 ft | 16 kts | 260° |
| 2026-05-05 18:08 | 52.20519 | 13.16310 | 139 ft | 16 kts | 256° |
| 2026-05-05 18:08 | 52.20492 | 13.16135 | 138 ft | 14 kts | 257° |
| 2026-05-05 18:08 | 52.20469 | 13.15988 | 139 ft | 11 kts | 256° |
| 2026-05-05 18:08 | 52.20496 | 13.15902 | 138 ft | 11 kts | 314° |
| 2026-05-05 18:09 | 52.20488 | 13.15749 | 137 ft | 18 kts | 256° |
| 2026-05-05 18:09 | 52.20460 | 13.15567 | 138 ft | 14 kts | 257° |
| 2026-05-05 18:09 | 52.20439 | 13.15441 | 140 ft | 7 kts | 257° |
| 2026-05-05 18:09 | 52.20412 | 13.15428 | 139 ft | 5 kts | 167° |
| 2026-05-05 18:10 | 52.20408 | 13.15430 | 139 ft | 0 kts | 166° |